Kingsbury, United Kingdom
Current Conditions -  °F | °C
As of 10:20 PM on Wednesday 28 Jan 2015 (Local Time) from EGBB Reporting Station
Moderate Rain Moderate Rain  
Wind Chill: 26°   Ceiling: 1900
Heat Index: 34°   Visibility: 6mi
Dew Point: 32°   Wind: 10mph
Humidity: 93%   Direction: 260°W
Pressure: 29.44"   Gusts: NA
Location:  52.56°N, 1.68°W
Report Text: EGBB 282220Z AUTO 26009KT 9999 RA FEW005/// SCT015/// BKN019/// 01/M00 Q0997 RESN
Loading
Personal Weather Stations






























Interactive Weather Map New forecast layout! Learn more

10-Day Weather Forecast

Advertisements
Track Severe Weather on mobile